createdAt,value
2023-02-03T00:00:15.024Z,18.75
2023-02-03T00:05:18.786Z,14.73
2023-02-03T00:10:24.240Z,15.13
2023-02-03T00:15:28.315Z,15.45
2023-02-03T00:20:32.128Z,14.40
2023-02-03T00:25:37.854Z,15.20
2023-02-03T00:30:41.649Z,12.48
2023-02-03T00:35:45.369Z,18.30
2023-02-03T00:40:55.051Z,23.75
2023-02-03T00:45:59.857Z,14.35
2023-02-03T00:51:03.638Z,14.18
2023-02-03T00:56:12.672Z,17.80
2023-02-03T01:01:16.602Z,14.02
2023-02-03T01:06:21.884Z,13.68
2023-02-03T01:11:28.644Z,17.40
2023-02-03T01:16:36.352Z,12.05
2023-02-03T01:21:40.210Z,13.57
2023-02-03T01:26:45.281Z,11.77
2023-02-03T01:31:49.260Z,13.75
2023-02-03T01:36:53.326Z,12.25
2023-02-03T01:41:59.793Z,14.68
2023-02-03T01:47:04.884Z,10.88
2023-02-03T01:52:08.712Z,10.23
2023-02-03T01:57:18.576Z,8.85
2023-02-03T02:02:22.832Z,11.98
2023-02-03T02:07:27.578Z,9.68
2023-02-03T02:12:32.682Z,7.93
2023-02-03T02:17:54.245Z,17.42
2023-02-03T02:23:23.837Z,11.43
2023-02-03T02:28:47.666Z,11.48
2023-02-03T02:34:02.596Z,16.42
2023-02-03T02:39:13.908Z,12.18
2023-02-03T02:44:24.098Z,13.98
2023-02-03T02:49:34.102Z,10.48
2023-02-03T02:54:42.475Z,7.97
2023-02-03T02:59:46.544Z,11.80
2023-02-03T03:04:52.594Z,9.60
2023-02-03T03:10:01.243Z,13.30
2023-02-03T03:15:09.311Z,6.25
2023-02-03T03:20:21.281Z,11.57
2023-02-03T03:25:31.010Z,14.18
2023-02-03T03:30:37.643Z,10.95
2023-02-03T03:35:49.309Z,13.60
2023-02-03T03:41:00.201Z,12.25
2023-02-03T03:46:11.168Z,12.63
2023-02-03T03:51:22.979Z,8.32
2023-02-03T03:56:29.799Z,11.27
2023-02-03T04:01:33.851Z,8.38
2023-02-03T04:06:40.196Z,7.65
2023-02-03T04:12:01.515Z,7.12
2023-02-03T04:17:05.856Z,5.37
2023-02-03T04:22:10.902Z,6.78
2023-02-03T04:27:14.733Z,11.18
2023-02-03T04:32:18.480Z,9.90
2023-02-03T04:37:24.093Z,8.48
2023-02-03T04:42:28.096Z,6.50
2023-02-03T04:47:31.801Z,16.05
2023-02-03T04:52:36.853Z,10.07
2023-02-03T04:57:40.568Z,10.35
2023-02-03T05:02:44.276Z,6.12
2023-02-03T05:07:49.417Z,7.18
2023-02-03T05:12:53.305Z,6.28
2023-02-03T05:17:57.266Z,13.82
2023-02-03T05:23:02.344Z,11.77
2023-02-03T05:28:06.271Z,8.43
2023-02-03T05:33:10.071Z,5.45
2023-02-03T05:38:15.483Z,14.68
2023-02-03T05:43:19.227Z,9.77
2023-02-03T05:48:22.955Z,10.20
2023-02-03T05:53:28.264Z,7.45
2023-02-03T05:58:32.015Z,7.07
2023-02-03T06:03:35.733Z,10.30
2023-02-03T06:08:40.830Z,10.95
2023-02-03T06:13:44.698Z,7.97
2023-02-03T06:18:48.386Z,8.85
2023-02-03T06:23:53.582Z,11.57
2023-02-03T06:28:57.336Z,11.45
2023-02-03T06:34:02.595Z,10.98
2023-02-03T06:39:07.718Z,11.75
2023-02-03T06:44:11.406Z,9.65
2023-02-03T06:49:15.121Z,9.15
2023-02-03T06:54:20.233Z,9.73
2023-02-03T06:59:23.945Z,12.52
2023-02-03T07:04:28.423Z,10.32
2023-02-03T07:09:33.517Z,13.85
2023-02-03T07:14:39.313Z,6.80
2023-02-03T07:19:45.106Z,17.23
2023-02-03T07:24:51.326Z,11.27
2023-02-03T07:29:55.042Z,8.23
2023-02-03T07:34:58.749Z,9.35
2023-02-03T07:40:03.964Z,15.00
2023-02-03T07:45:08.717Z,12.80
2023-02-03T07:50:13.271Z,7.68
2023-02-03T07:55:18.496Z,13.88
2023-02-03T08:00:22.769Z,10.82
2023-02-03T08:05:26.485Z,12.25
2023-02-03T08:10:31.660Z,14.40
2023-02-03T08:15:35.469Z,12.73
2023-02-03T08:20:39.247Z,15.63
2023-02-03T08:25:44.536Z,14.23
2023-02-03T08:30:48.320Z,12.43
2023-02-03T08:35:52.271Z,14.02
2023-02-03T08:40:57.429Z,13.62
2023-02-03T08:46:04.245Z,12.43
2023-02-03T08:51:12.192Z,14.05
2023-02-03T08:56:17.258Z,17.08
2023-02-03T09:01:21.266Z,19.37
2023-02-03T09:06:26.278Z,15.93
2023-02-03T09:11:31.531Z,11.70
2023-02-03T09:16:35.527Z,19.60
2023-02-03T09:21:41.868Z,16.80
2023-02-03T09:26:53.276Z,22.00
2023-02-03T09:31:57.031Z,11.00
2023-02-03T09:37:00.856Z,22.25
2023-02-03T09:42:25.324Z,18.42
2023-02-03T09:47:33.583Z,12.20
2023-02-03T09:57:51.443Z,13.10
2023-02-03T10:02:59.712Z,17.60
2023-02-03T10:08:15.396Z,23.33
2023-02-03T10:13:30.081Z,17.30
2023-02-03T10:18:41.418Z,17.35
2023-02-03T10:23:46.604Z,12.73
2023-02-03T10:28:56.763Z,16.55
2023-02-03T10:34:02.296Z,11.45
2023-02-03T10:39:18.562Z,18.25
2023-02-03T10:44:32.342Z,15.75
2023-02-03T10:49:36.328Z,20.62
2023-02-03T10:54:40.095Z,15.80
2023-02-03T10:59:47.972Z,8.75
2023-02-03T11:05:09.952Z,11.07
2023-02-03T11:10:36.079Z,19.23
2023-02-03T11:15:45.629Z,11.80
2023-02-03T11:20:49.473Z,12.10
2023-02-03T11:25:53.519Z,11.10
2023-02-03T11:31:01.709Z,13.25
2023-02-03T11:36:05.956Z,11.98
2023-02-03T11:41:17.338Z,10.63
2023-02-03T11:46:23.426Z,15.48
2023-02-03T11:51:41.140Z,12.77
2023-02-03T11:57:03.684Z,8.00
2023-02-03T12:02:43.958Z,10.52
2023-02-03T12:08:10.729Z,14.82
2023-02-03T12:13:33.595Z,10.48
2023-02-03T12:18:53.689Z,9.07
2023-02-03T12:24:04.561Z,5.65
2023-02-03T12:29:14.493Z,11.45
2023-02-03T12:34:26.072Z,10.30
2023-02-03T12:39:32.767Z,14.10
2023-02-03T12:44:44.384Z,7.43
2023-02-03T12:49:54.708Z,8.13
2023-02-03T12:55:08.257Z,17.65
2023-02-03T13:00:20.136Z,7.62
2023-02-03T13:05:31.378Z,17.73
2023-02-03T13:10:40.809Z,11.12
2023-02-03T13:15:48.929Z,13.05
2023-02-03T13:20:54.510Z,14.75
2023-02-03T13:26:23.056Z,12.88
2023-02-03T13:31:39.526Z,15.35
2023-02-03T13:37:13.505Z,13.23
2023-02-03T13:42:24.622Z,8.02
2023-02-03T13:47:30.256Z,8.27
2023-02-03T13:52:39.714Z,11.52
2023-02-03T13:57:43.551Z,11.80
2023-02-03T14:02:54.596Z,6.55
2023-02-03T14:07:59.732Z,10.30
2023-02-03T14:13:04.381Z,6.53
2023-02-03T14:18:33.053Z,11.10
2023-02-03T14:23:45.381Z,10.27
2023-02-03T14:28:53.699Z,14.35
2023-02-03T14:34:06.142Z,13.35
2023-02-03T14:39:58.701Z,10.05
2023-02-03T14:45:14.715Z,13.60
2023-02-03T14:50:29.866Z,6.15
2023-02-03T14:55:50.313Z,13.20
2023-02-03T15:00:55.345Z,17.25
2023-02-03T15:06:02.496Z,12.93
2023-02-03T15:11:35.457Z,10.65
2023-02-03T15:16:39.227Z,8.82
2023-02-03T15:21:43.337Z,7.53
2023-02-03T15:26:50.746Z,9.93
2023-02-03T15:32:01.032Z,16.13
2023-02-03T15:37:09.575Z,11.23
2023-02-03T15:42:22.715Z,11.35
2023-02-03T15:47:33.840Z,8.90
2023-02-03T15:52:43.514Z,11.15
2023-02-03T15:57:51.019Z,11.40
2023-02-03T16:02:58.059Z,6.50
2023-02-03T16:08:28.538Z,11.02
2023-02-03T16:13:35.859Z,12.60
2023-02-03T16:18:39.638Z,15.68
2023-02-03T16:23:50.749Z,16.75
2023-02-03T16:29:28.953Z,17.10
2023-02-03T16:40:11.182Z,22.35
2023-02-03T16:45:35.906Z,15.57
2023-02-03T16:50:52.964Z,9.40
2023-02-03T16:55:58.912Z,12.02
2023-02-03T17:01:06.110Z,17.58
2023-02-03T17:06:12.669Z,19.00
2023-02-03T17:11:18.359Z,10.77
2023-02-03T17:16:26.705Z,19.05
2023-02-03T17:21:31.100Z,17.05
2023-02-03T17:26:35.119Z,17.50
2023-02-03T17:31:40.249Z,14.95
2023-02-03T17:36:44.055Z,13.62
2023-02-03T17:57:53.592Z,13.80
2023-02-03T18:02:58.860Z,16.27
2023-02-03T18:08:09.059Z,14.73
2023-02-03T18:13:23.369Z,14.48
2023-02-03T18:18:29.072Z,26.40
2023-02-03T18:23:33.389Z,27.55
2023-02-03T18:28:38.031Z,30.65
2023-02-03T18:33:44.670Z,34.80
2023-02-03T18:38:49.061Z,28.50
2023-02-03T18:43:53.201Z,26.65
2023-02-03T18:48:58.641Z,28.48
2023-02-03T18:54:03.462Z,37.67
2023-02-03T18:59:09.472Z,27.08
2023-02-03T19:04:15.058Z,29.92
2023-02-03T19:09:20.598Z,35.75
2023-02-03T19:14:24.721Z,26.20
2023-02-03T19:19:29.866Z,28.55
2023-02-03T19:24:33.570Z,27.87
2023-02-03T19:29:38.954Z,26.35
2023-02-03T19:34:44.159Z,27.33
2023-02-03T19:39:50.404Z,26.42
2023-02-03T19:44:54.162Z,36.20
2023-02-03T19:49:59.338Z,29.77
2023-02-03T19:55:03.073Z,29.85
2023-02-03T20:00:08.495Z,30.10
2023-02-03T20:05:18.337Z,33.40
2023-02-03T20:10:22.083Z,35.15
2023-02-03T20:15:25.892Z,28.60
2023-02-03T20:20:31.275Z,36.25
2023-02-03T20:25:35.286Z,33.42
2023-02-03T20:30:40.060Z,33.33
2023-02-03T20:35:45.291Z,28.83
2023-02-03T20:40:49.005Z,30.85
2023-02-03T20:45:55.848Z,29.87
2023-02-03T20:51:01.158Z,40.72
2023-02-03T20:56:12.650Z,34.92
2023-02-03T21:01:18.996Z,37.45
2023-02-03T21:06:24.857Z,30.75
2023-02-03T21:11:30.808Z,33.25
2023-02-03T21:16:39.380Z,46.33
2023-02-03T21:21:46.798Z,30.02
2023-02-03T21:26:50.689Z,38.67
2023-02-03T21:31:55.760Z,32.30
2023-02-03T21:37:08.975Z,36.13
2023-02-03T21:42:40.938Z,36.55
2023-02-03T21:47:46.684Z,31.80
2023-02-03T21:52:51.744Z,35.08
2023-02-03T21:57:55.763Z,39.97
2023-02-03T22:03:01.222Z,34.53
2023-02-03T22:08:14.498Z,42.60
2023-02-03T22:13:20.087Z,47.22
2023-02-03T22:18:24.353Z,44.25
2023-02-03T22:23:29.416Z,39.15
2023-02-03T22:28:33.144Z,33.22
2023-02-03T22:33:37.125Z,31.40
2023-02-03T22:38:42.966Z,39.95
2023-02-03T22:43:46.636Z,38.75
2023-02-03T22:48:50.349Z,37.88
2023-02-03T22:53:55.448Z,27.92
2023-02-03T22:58:59.357Z,35.97
2023-02-03T23:04:03.134Z,31.62
2023-02-03T23:09:08.300Z,22.42
2023-02-03T23:14:12.203Z,22.90
2023-02-03T23:19:16.397Z,29.23
2023-02-03T23:24:21.478Z,28.23
2023-02-03T23:29:25.332Z,20.33
2023-02-03T23:34:46.689Z,29.77
2023-02-03T23:39:51.824Z,39.55
2023-02-03T23:44:55.943Z,34.45
2023-02-03T23:49:59.692Z,28.55
2023-02-03T23:55:09.394Z,24.33
